Time;durP1;ratioP1;P1;durP2;ratioP2;P2;SDS_P1;SDS_P2;PMS_P1;PMS_P2;Temp;Humidity;BMP_temperature;BMP_pressure;BME280_temperature;BME280_humidity;BME280_pressure;Samples;Min_cycle;Max_cycle;Signal;HPM_P1;HPM_P2
2022/07/24 00:01:32;;;;;;;14.52;11.38;;;19.20;99.90;;;;;;4954949;28;20036;-60
2022/07/24 00:03:58;;;;;;;17.83;11.93;;;19.20;99.90;;;;;;4955160;28;20043;-59
2022/07/24 00:06:24;;;;;;;10.82;9.70;;;19.10;99.90;;;;;;4954996;28;20363;-57
2022/07/24 00:08:50;;;;;;;14.30;10.93;;;19.10;99.90;;;;;;4954679;28;20027;-60
2022/07/24 00:11:15;;;;;;;13.35;10.05;;;19.10;99.90;;;;;;4955057;28;20024;-60
2022/07/24 00:13:41;;;;;;;15.80;10.85;;;19.10;99.90;;;;;;4956964;28;20379;-58
2022/07/24 00:16:07;;;;;;;13.25;10.43;;;19.10;99.90;;;;;;4974020;28;20034;-59
2022/07/24 00:18:33;;;;;;;14.85;10.23;;;19.20;99.90;;;;;;4974185;28;20026;-58
2022/07/24 00:20:59;;;;;;;21.30;10.00;;;19.20;99.90;;;;;;4973865;28;20078;-56
2022/07/24 00:23:25;;;;;;;13.82;9.82;;;19.20;99.90;;;;;;4974036;28;20086;-58
2022/07/24 00:25:51;;;;;;;15.15;10.50;;;19.20;99.90;;;;;;4973876;28;20042;-58
2022/07/24 00:28:17;;;;;;;12.40;10.30;;;19.20;99.90;;;;;;4973697;28;20022;-60
2022/07/24 00:30:43;;;;;;;13.40;9.73;;;19.10;99.90;;;;;;4973839;28;20422;-60
2022/07/24 00:33:12;;;;;;;14.85;10.80;;;19.10;99.90;;;;;;4955482;28;20031;-58
2022/07/24 00:35:37;;;;;;;17.10;9.75;;;19.10;99.90;;;;;;4973514;28;20081;-61
2022/07/24 00:38:03;;;;;;;11.43;9.65;;;19.00;99.90;;;;;;4973316;28;20026;-57
2022/07/24 00:40:30;;;;;;;18.02;10.02;;;19.00;99.90;;;;;;4973427;28;20112;-58
2022/07/24 00:42:56;;;;;;;13.05;10.85;;;18.90;99.90;;;;;;4973211;28;20031;-59
2022/07/24 00:45:22;;;;;;;15.80;11.88;;;18.90;99.90;;;;;;4973613;28;20042;-60
2022/07/24 00:47:48;;;;;;;12.55;10.45;;;18.80;99.90;;;;;;4972801;28;20485;-60
2022/07/24 00:50:14;;;;;;;17.48;10.25;;;18.90;99.90;;;;;;4973328;28;20062;-57
2022/07/24 00:52:39;;;;;;;15.18;10.63;;;19.00;99.90;;;;;;4973144;28;20022;-60
2022/07/24 00:55:07;;;;;;;18.40;10.30;;;18.90;99.90;;;;;;4973230;28;20062;-59
2022/07/24 00:57:32;;;;;;;14.07;11.05;;;18.80;99.90;;;;;;4973204;28;20030;-58
2022/07/24 00:59:58;;;;;;;13.55;10.73;;;18.80;99.90;;;;;;4973023;28;20355;-60
2022/07/24 01:02:24;;;;;;;13.85;11.48;;;18.70;99.90;;;;;;4973056;28;20053;-58
2022/07/24 01:04:50;;;;;;;13.82;11.55;;;18.60;99.90;;;;;;4973013;28;20039;-58
2022/07/24 01:07:16;;;;;;;12.63;10.90;;;18.50;99.90;;;;;;4972696;28;20109;-61
2022/07/24 01:09:43;;;;;;;11.75;10.63;;;18.50;99.90;;;;;;4972724;28;20031;-57
2022/07/24 01:12:09;;;;;;;17.63;11.27;;;18.50;99.90;;;;;;4973096;28;20026;-57
2022/07/24 01:14:35;;;;;;;14.32;11.38;;;18.40;99.90;;;;;;4973271;28;20106;-60
2022/07/24 01:17:01;;;;;;;15.05;12.15;;;18.30;99.90;;;;;;4972723;28;20110;-60
2022/07/24 01:19:26;;;;;;;18.00;10.60;;;18.30;99.90;;;;;;4973014;28;20362;-59
2022/07/24 01:21:53;;;;;;;20.38;12.02;;;18.30;99.90;;;;;;4972859;28;20026;-60
2022/07/24 01:24:20;;;;;;;12.13;10.48;;;18.40;99.90;;;;;;4972950;28;20118;-60
2022/07/24 01:26:47;;;;;;;16.77;11.63;;;18.40;99.90;;;;;;4973142;28;20037;-59
2022/07/24 01:29:14;;;;;;;16.50;10.77;;;18.40;99.90;;;;;;4972592;28;20031;-59
2022/07/24 01:31:40;;;;;;;15.98;10.27;;;18.40;99.90;;;;;;4972857;28;20463;-59
2022/07/24 01:34:06;;;;;;;19.58;12.38;;;18.40;99.90;;;;;;4972534;28;20027;-57
2022/07/24 01:36:32;;;;;;;12.98;10.30;;;18.40;99.90;;;;;;4972564;28;20042;-58
2022/07/24 01:38:57;;;;;;;11.70;10.50;;;18.40;99.90;;;;;;4973044;28;20122;-58
2022/07/24 01:41:23;;;;;;;15.52;10.23;;;18.40;99.90;;;;;;4972437;28;20050;-59
2022/07/24 01:43:49;;;;;;;16.92;10.77;;;18.40;99.90;;;;;;4972486;28;20438;-60
2022/07/24 01:46:15;;;;;;;18.00;11.60;;;18.40;99.90;;;;;;4972585;28;20029;-58
2022/07/24 01:48:44;;;;;;;20.00;11.15;;;18.40;99.90;;;;;;4972245;28;20035;-57
2022/07/24 01:51:10;;;;;;;16.92;11.95;;;18.50;99.90;;;;;;4972082;28;20022;-59
2022/07/24 01:53:36;;;;;;;13.43;11.38;;;18.50;99.90;;;;;;4972768;28;20110;-59
2022/07/24 01:56:02;;;;;;;16.08;11.18;;;18.50;99.90;;;;;;4972607;28;20110;-58
2022/07/24 01:58:28;;;;;;;22.13;11.75;;;18.60;99.90;;;;;;4972407;28;20054;-56
2022/07/24 02:00:54;;;;;;;12.75;11.45;;;18.50;99.90;;;;;;4972803;28;20038;-59
2022/07/24 02:03:19;;;;;;;12.15;10.93;;;18.50;99.90;;;;;;4972234;28;20026;-60
2022/07/24 02:05:46;;;;;;;17.05;11.10;;;18.60;99.90;;;;;;4972528;28;20027;-59
2022/07/24 02:08:12;;;;;;;21.25;11.07;;;18.60;99.90;;;;;;4972601;28;20106;-60
2022/07/24 02:10:38;;;;;;;19.85;10.77;;;18.60;99.90;;;;;;4972139;28;20375;-60
2022/07/24 02:13:04;;;;;;;15.70;11.40;;;18.60;99.90;;;;;;4971839;28;20022;-54
2022/07/24 02:15:30;;;;;;;15.95;11.18;;;18.60;99.90;;;;;;4972258;28;20033;-57
2022/07/24 02:17:58;;;;;;;15.35;12.13;;;18.60;99.90;;;;;;4971975;28;20100;-58
2022/07/24 02:20:25;;;;;;;17.35;11.50;;;18.50;99.90;;;;;;4972322;28;20038;-58
2022/07/24 02:22:50;;;;;;;20.40;11.93;;;18.60;99.90;;;;;;4972065;28;20629;-58
2022/07/24 02:25:16;;;;;;;14.57;11.40;;;18.50;99.90;;;;;;4971826;28;20031;-55
2022/07/24 02:27:42;;;;;;;16.95;11.93;;;18.40;99.90;;;;;;4971994;28;20049;-60
2022/07/24 02:30:14;;;;;;;24.25;11.40;;;18.40;99.90;;;;;;4972044;28;20066;-58
2022/07/24 02:32:40;;;;;;;13.40;10.80;;;18.40;99.90;;;;;;4972006;28;20082;-57
2022/07/24 02:35:06;;;;;;;15.38;10.68;;;18.40;99.90;;;;;;4972256;28;20052;-59
2022/07/24 02:37:32;;;;;;;18.45;11.30;;;18.30;99.90;;;;;;4971973;28;20031;-58
2022/07/24 02:39:58;;;;;;;15.90;10.80;;;18.30;99.90;;;;;;4972059;28;20038;-59
2022/07/24 02:42:23;;;;;;;16.05;12.18;;;18.20;99.90;;;;;;4971899;28;20374;-57
2022/07/24 02:44:49;;;;;;;15.88;11.88;;;18.20;99.90;;;;;;4972244;28;20434;-58
2022/07/24 02:47:15;;;;;;;16.02;10.90;;;18.20;99.90;;;;;;4972007;28;20110;-59
2022/07/24 02:49:40;;;;;;;15.85;11.20;;;18.10;99.90;;;;;;4971707;28;20130;-59
2022/07/24 02:52:06;;;;;;;15.38;10.65;;;18.00;99.90;;;;;;4972655;28;20126;-58
2022/07/24 02:54:32;;;;;;;15.57;10.10;;;18.00;99.90;;;;;;4972067;28;20473;-57
2022/07/24 02:56:57;;;;;;;23.60;11.98;;;17.90;99.90;;;;;;4973802;28;20023;-57
2022/07/24 02:59:26;;;;;;;15.63;11.38;;;17.90;99.90;;;;;;4975378;28;20027;-58
2022/07/24 03:01:51;;;;;;;17.30;11.40;;;17.90;99.90;;;;;;4976265;28;20403;-59
2022/07/24 03:04:17;;;;;;;14.77;10.68;;;17.80;99.90;;;;;;4975255;28;20066;-58
2022/07/24 03:06:43;;;;;;;18.40;11.00;;;17.80;99.90;;;;;;4975703;28;20042;-58
2022/07/24 03:09:15;;;;;;;20.27;10.40;;;17.80;99.90;;;;;;4957876;28;20509;-57
2022/07/24 03:11:41;;;;;;;19.50;10.85;;;17.70;99.90;;;;;;4975518;28;20026;-56
2022/07/24 03:14:06;;;;;;;20.20;12.27;;;17.60;99.90;;;;;;4974853;28;20038;-59
2022/07/24 03:16:38;;;;;;;13.07;10.68;;;17.60;99.90;;;;;;4975123;28;20030;-57
2022/07/24 03:19:03;;;;;;;16.85;9.95;;;17.60;99.90;;;;;;4974949;28;20030;-58
2022/07/24 03:21:29;;;;;;;18.55;11.02;;;17.50;99.90;;;;;;4975508;28;20033;-59
2022/07/24 03:23:55;;;;;;;19.05;12.43;;;17.50;99.90;;;;;;4974822;28;20387;-58
2022/07/24 03:26:20;;;;;;;15.00;11.35;;;17.40;99.90;;;;;;4975017;28;20110;-55
2022/07/24 03:28:49;;;;;;;18.77;13.27;;;17.40;99.90;;;;;;4974763;28;20687;-60
2022/07/24 03:31:15;;;;;;;25.40;12.52;;;17.40;99.90;;;;;;4975217;28;20021;-59
2022/07/24 03:33:40;;;;;;;20.85;12.35;;;17.40;99.90;;;;;;4974624;28;20102;-58
2022/07/24 03:36:08;;;;;;;20.30;12.05;;;17.40;99.90;;;;;;4975410;28;20030;-57
2022/07/24 03:38:34;;;;;;;16.45;11.90;;;17.40;99.90;;;;;;4974994;28;20181;-58
2022/07/24 03:40:59;;;;;;;23.27;11.75;;;17.40;99.90;;;;;;4974827;28;20098;-58
2022/07/24 03:43:25;;;;;;;21.92;11.80;;;17.30;99.90;;;;;;4974856;28;20129;-57
2022/07/24 03:45:51;;;;;;;19.20;12.07;;;17.30;99.90;;;;;;4974360;28;20027;-56
2022/07/24 03:48:16;;;;;;;21.35;11.38;;;17.30;99.90;;;;;;4974151;28;20047;-56
2022/07/24 03:50:42;;;;;;;15.15;12.55;;;17.30;99.90;;;;;;4974376;28;20034;-58
2022/07/24 03:53:08;;;;;;;24.02;11.93;;;17.20;99.90;;;;;;4974625;28;20027;-58
2022/07/24 03:55:33;;;;;;;16.80;11.55;;;17.20;99.90;;;;;;4974703;28;20502;-56
2022/07/24 03:57:59;;;;;;;29.95;12.52;;;17.10;99.90;;;;;;4974068;28;20054;-57
2022/07/24 04:00:25;;;;;;;28.02;13.32;;;17.10;99.90;;;;;;4974396;28;20038;-58
2022/07/24 04:02:50;;;;;;;19.13;11.95;;;17.20;99.90;;;;;;4974015;28;20499;-60
2022/07/24 04:05:16;;;;;;;16.23;12.02;;;17.20;99.90;;;;;;4974054;28;20169;-57
2022/07/24 04:07:41;;;;;;;21.65;12.20;;;17.20;99.90;;;;;;4973626;28;20494;-57
2022/07/24 04:10:08;;;;;;;22.77;11.32;;;17.30;99.90;;;;;;4973850;28;20022;-55
2022/07/24 04:12:34;;;;;;;23.95;11.40;;;17.40;99.90;;;;;;4974247;28;20821;-57
2022/07/24 04:14:59;;;;;;;20.73;11.43;;;17.40;99.90;;;;;;4973919;28;20038;-58
2022/07/24 04:17:25;;;;;;;18.58;10.88;;;17.50;99.90;;;;;;4973330;28;20050;-57
2022/07/24 04:19:51;;;;;;;16.98;10.95;;;17.50;99.90;;;;;;4973815;28;20038;-60
2022/07/24 04:22:17;;;;;;;19.23;11.50;;;17.60;99.90;;;;;;4973784;28;20031;-58
2022/07/24 04:24:42;;;;;;;16.30;11.63;;;17.60;99.90;;;;;;4973930;28;20102;-59
2022/07/24 04:27:08;;;;;;;14.75;11.07;;;17.70;99.90;;;;;;4973621;28;20030;-56
2022/07/24 04:29:34;;;;;;;14.35;10.50;;;17.80;99.90;;;;;;4956426;28;20042;-57
2022/07/24 04:31:59;;;;;;;14.52;10.73;;;17.90;99.90;;;;;;4973543;28;20081;-56
2022/07/24 04:34:25;;;;;;;17.73;12.18;;;18.10;99.90;;;;;;4973141;28;20137;-59
2022/07/24 04:36:51;;;;;;;16.65;10.65;;;18.20;99.90;;;;;;4973424;28;20029;-57
2022/07/24 04:39:17;;;;;;;17.02;10.90;;;18.20;99.90;;;;;;4973513;28;20603;-56
2022/07/24 04:41:43;;;;;;;15.57;11.88;;;18.30;99.90;;;;;;4973616;28;20122;-58
2022/07/24 04:44:09;;;;;;;19.02;11.10;;;18.40;99.90;;;;;;4973599;28;20035;-58
2022/07/24 04:46:34;;;;;;;18.20;11.60;;;18.50;99.90;;;;;;4973438;28;20454;-57
2022/07/24 04:49:00;;;;;;;14.90;11.98;;;18.60;99.90;;;;;;4955659;28;20402;-60
2022/07/24 04:51:26;;;;;;;19.95;12.02;;;18.60;99.90;;;;;;4973193;28;20038;-58
2022/07/24 04:53:54;;;;;;;16.23;12.05;;;18.80;99.90;;;;;;4973080;28;20498;-56
2022/07/24 04:56:20;;;;;;;14.43;11.13;;;18.80;99.90;;;;;;4973345;28;20057;-59
2022/07/24 04:58:52;;;;;;;11.93;10.68;;;19.00;99.90;;;;;;4972937;28;20030;-58
2022/07/24 05:01:18;;;;;;;13.32;9.68;;;19.10;99.90;;;;;;4973257;28;20058;-58
2022/07/24 05:03:44;;;;;;;12.02;10.18;;;19.10;99.90;;;;;;4972842;28;20062;-59
2022/07/24 05:06:09;;;;;;;15.68;11.43;;;19.20;99.90;;;;;;4973533;28;20070;-58
2022/07/24 05:08:35;;;;;;;13.93;11.20;;;19.30;99.90;;;;;;4972657;28;20474;-60
2022/07/24 05:11:01;;;;;;;14.45;12.57;;;19.40;99.90;;;;;;4973225;28;20027;-56
2022/07/24 05:13:26;;;;;;;17.50;11.25;;;19.50;99.90;;;;;;4973069;28;20030;-59
2022/07/24 05:15:52;;;;;;;16.13;11.93;;;19.50;99.90;;;;;;4972566;28;20033;-56
2022/07/24 05:18:18;;;;;;;18.52;12.32;;;19.40;99.90;;;;;;4955639;28;20511;-57
2022/07/24 05:20:44;;;;;;;15.50;12.57;;;19.40;99.90;;;;;;4972521;28;20470;-58
2022/07/24 05:23:10;;;;;;;13.93;12.48;;;19.40;99.90;;;;;;4972569;28;20035;-57
2022/07/24 05:25:35;;;;;;;15.35;11.05;;;19.40;99.90;;;;;;4955267;28;20039;-60
2022/07/24 05:28:01;;;;;;;13.55;11.40;;;19.60;99.90;;;;;;4972819;28;20033;-59
2022/07/24 05:30:27;;;;;;;13.68;10.80;;;19.70;99.90;;;;;;4972800;28;20335;-59
2022/07/24 05:32:53;;;;;;;21.58;12.80;;;19.80;99.90;;;;;;4972898;28;20027;-59
2022/07/24 05:35:18;;;;;;;14.63;12.70;;;19.80;99.90;;;;;;4972881;28;20166;-59
2022/07/24 05:37:44;;;;;;;15.57;12.82;;;19.80;99.90;;;;;;4973266;28;20037;-60
2022/07/24 05:40:10;;;;;;;15.10;12.75;;;19.80;99.90;;;;;;4972815;28;20031;-58
2022/07/24 05:42:36;;;;;;;16.27;11.40;;;20.00;99.90;;;;;;4972671;28;20031;-59
2022/07/24 05:45:02;;;;;;;14.80;10.38;;;20.10;99.90;;;;;;4972641;28;20053;-56
2022/07/24 05:47:28;;;;;;;11.30;10.10;;;20.30;99.90;;;;;;4972550;28;20035;-59
2022/07/24 05:49:53;;;;;;;10.93;9.30;;;20.40;99.90;;;;;;4972465;28;20043;-61
2022/07/24 05:52:19;;;;;;;11.63;9.77;;;20.50;99.90;;;;;;4972193;28;20159;-59
2022/07/24 05:54:45;;;;;;;14.00;10.15;;;20.60;99.90;;;;;;4972536;28;20019;-59
2022/07/24 05:57:10;;;;;;;11.18;10.00;;;20.70;99.90;;;;;;4972556;28;20102;-58
2022/07/24 06:00:08;;;;;;;9.68;8.68;;;20.80;99.90;;;;;;4973533;28;20038;-58
2022/07/24 06:02:34;;;;;;;17.92;10.70;;;20.90;99.90;;;;;;4971608;28;20522;-58
2022/07/24 06:04:59;;;;;;;11.05;9.80;;;20.80;99.90;;;;;;4972125;28;20066;-60
2022/07/24 06:07:25;;;;;;;11.15;10.02;;;20.80;99.90;;;;;;4972255;28;20027;-60
2022/07/24 06:09:52;;;;;;;11.10;9.50;;;20.80;99.90;;;;;;4973598;28;20034;-57
2022/07/24 06:12:17;;;;;;;11.45;10.35;;;20.80;99.90;;;;;;4971919;28;20102;-58
2022/07/24 06:14:43;;;;;;;13.88;10.57;;;20.80;99.90;;;;;;4971940;28;20106;-58
2022/07/24 06:17:09;;;;;;;13.40;9.02;;;20.90;99.90;;;;;;4971830;28;20178;-52
2022/07/24 06:19:35;;;;;;;11.80;9.60;;;21.00;99.90;;;;;;4971903;28;20412;-56
2022/07/24 06:22:00;;;;;;;16.83;8.85;;;21.10;99.90;;;;;;4972517;28;20084;-58
2022/07/24 06:24:26;;;;;;;11.45;9.90;;;21.10;99.90;;;;;;4973655;28;20031;-58
2022/07/24 06:26:52;;;;;;;13.13;9.63;;;21.20;99.90;;;;;;4971616;28;20057;-59
2022/07/24 06:29:18;;;;;;;12.30;9.70;;;21.30;99.90;;;;;;4971722;28;20039;-59
2022/07/24 06:31:43;;;;;;;11.98;10.10;;;21.30;99.90;;;;;;4973022;28;20022;-57
2022/07/24 06:34:10;;;;;;;22.10;9.50;;;21.40;99.90;;;;;;4977214;28;20045;-57
2022/07/24 06:36:36;;;;;;;20.20;10.52;;;21.60;99.90;;;;;;4975586;28;20037;-60
2022/07/24 06:39:01;;;;;;;18.08;10.27;;;21.80;99.90;;;;;;4976231;28;20105;-58
2022/07/24 06:41:27;;;;;;;11.52;9.95;;;21.90;99.90;;;;;;4975865;28;20489;-58
2022/07/24 06:43:53;;;;;;;13.27;9.77;;;21.90;99.90;;;;;;4974862;28;20035;-58
2022/07/24 06:46:19;;;;;;;12.48;10.98;;;22.10;99.90;;;;;;4974345;28;20027;-61
2022/07/24 06:48:50;;;;;;;17.88;10.73;;;22.10;99.90;;;;;;4973672;28;20119;-58
2022/07/24 06:51:17;;;;;;;11.02;9.95;;;22.20;99.90;;;;;;4975545;28;20026;-58
2022/07/24 06:53:58;;;;;;;15.43;10.68;;;22.20;99.90;;;;;;4975559;28;20356;-60
2022/07/24 06:56:23;;;;;;;12.45;10.90;;;22.30;99.90;;;;;;4974372;28;20070;-58
2022/07/24 06:58:49;;;;;;;16.40;11.32;;;22.30;99.90;;;;;;4973597;28;20062;-60
2022/07/24 07:01:15;;;;;;;16.27;12.48;;;22.50;99.90;;;;;;4975514;28;20031;-59
2022/07/24 07:03:42;;;;;;;12.05;10.75;;;22.50;99.90;;;;;;4976048;28;20035;-65
2022/07/24 07:06:08;;;;;;;12.10;9.27;;;22.50;99.90;;;;;;4974617;28;20406;-57
2022/07/24 07:08:34;;;;;;;15.80;10.35;;;22.60;99.90;;;;;;4957872;28;20126;-59
2022/07/24 07:11:00;;;;;;;12.43;10.55;;;22.60;99.90;;;;;;4974976;28;20411;-60
2022/07/24 07:13:26;;;;;;;14.48;10.77;;;22.60;99.90;;;;;;4975108;28;20023;-60
2022/07/24 07:15:51;;;;;;;13.27;11.85;;;22.60;99.90;;;;;;4975110;28;20027;-61
2022/07/24 07:18:17;;;;;;;16.17;11.60;;;22.80;99.90;;;;;;4974981;28;20105;-61
2022/07/24 07:20:43;;;;;;;16.80;10.88;;;23.00;99.90;;;;;;4975193;28;20085;-60
2022/07/24 07:23:08;;;;;;;15.48;11.02;;;23.10;99.90;;;;;;4974538;28;20117;-59
2022/07/24 07:25:34;;;;;;;13.77;12.15;;;23.30;99.90;;;;;;4974343;28;20125;-70
2022/07/24 07:28:00;;;;;;;14.07;12.18;;;23.20;99.90;;;;;;4974803;28;20038;-59
2022/07/24 07:30:26;;;;;;;21.30;12.30;;;23.30;99.90;;;;;;4975056;28;20114;-61
2022/07/24 07:32:51;;;;;;;19.23;10.90;;;23.40;99.90;;;;;;4974476;28;20109;-60
2022/07/24 07:35:17;;;;;;;14.55;11.57;;;23.60;99.90;;;;;;4974990;28;20394;-58
2022/07/24 07:37:45;;;;;;;18.80;12.48;;;23.80;99.90;;;;;;4973993;28;20053;-58
2022/07/24 07:40:11;;;;;;;18.52;13.13;;;23.90;99.90;;;;;;4973409;28;20364;-59
2022/07/24 07:42:36;;;;;;;15.77;12.35;;;23.90;99.90;;;;;;4972910;28;20035;-60
2022/07/24 07:45:03;;;;;;;15.00;12.68;;;23.90;99.90;;;;;;4973165;28;20030;-59
2022/07/24 07:47:29;;;;;;;15.30;11.50;;;24.00;99.90;;;;;;4973242;28;20451;-58
2022/07/24 07:49:55;;;;;;;19.40;12.23;;;24.10;99.90;;;;;;4973160;28;20035;-61
2022/07/24 07:52:20;;;;;;;23.70;12.02;;;24.10;99.90;;;;;;4973993;28;20026;-57
2022/07/24 07:54:46;;;;;;;17.02;12.60;;;24.10;99.90;;;;;;4974766;28;20054;-56
2022/07/24 07:57:12;;;;;;;17.58;13.23;;;24.10;99.90;;;;;;4974579;28;20018;-60
2022/07/24 07:59:37;;;;;;;15.07;12.15;;;24.30;99.90;;;;;;4974547;28;20085;-59
2022/07/24 08:02:03;;;;;;;14.38;11.27;;;24.30;99.90;;;;;;4974404;28;20023;-59
2022/07/24 08:04:29;;;;;;;17.95;11.88;;;24.60;99.90;;;;;;4974106;28;20045;-58
2022/07/24 08:06:55;;;;;;;18.45;14.80;;;24.80;99.90;;;;;;4974010;28;20030;-59
2022/07/24 08:09:21;;;;;;;16.65;11.52;;;24.90;99.90;;;;;;4973873;28;20039;-56
2022/07/24 08:11:46;;;;;;;54.15;49.05;;;24.70;99.90;;;;;;4973411;28;20055;-59
2022/07/24 08:14:12;;;;;;;19.25;17.35;;;24.60;99.90;;;;;;4974003;28;20034;-56
2022/07/24 08:16:38;;;;;;;15.23;11.80;;;24.60;99.90;;;;;;4973537;28;20029;-55
2022/07/24 08:19:03;;;;;;;19.83;16.83;;;24.70;99.90;;;;;;4974117;28;20093;-60
2022/07/24 08:21:31;;;;;;;14.07;12.05;;;24.70;99.90;;;;;;4974124;28;20106;-56
2022/07/24 08:23:57;;;;;;;12.85;11.40;;;24.70;99.90;;;;;;4973553;28;20097;-57
2022/07/24 08:26:22;;;;;;;18.13;13.23;;;24.70;99.90;;;;;;4974177;28;20023;-57
2022/07/24 08:28:48;;;;;;;20.67;11.98;;;24.90;99.90;;;;;;4955730;28;20050;-60
2022/07/24 08:31:14;;;;;;;12.82;11.02;;;24.90;99.90;;;;;;4973925;28;20041;-59
2022/07/24 08:33:39;;;;;;;19.17;11.85;;;25.00;99.90;;;;;;4973671;28;20031;-58
2022/07/24 08:36:05;;;;;;;15.65;13.15;;;25.20;99.90;;;;;;4973745;28;20023;-58
2022/07/24 08:38:31;;;;;;;14.60;10.68;;;25.10;99.90;;;;;;4973597;28;20033;-55
2022/07/24 08:40:57;;;;;;;13.02;10.68;;;25.30;99.90;;;;;;4973485;28;20644;-57
2022/07/24 08:43:23;;;;;;;16.27;12.90;;;25.50;99.90;;;;;;4973526;28;20556;-59
2022/07/24 08:45:50;;;;;;;15.18;12.30;;;25.50;99.90;;;;;;4973521;28;20026;-58
2022/07/24 08:48:17;;;;;;;14.40;12.55;;;25.60;99.90;;;;;;4973292;28;20045;-59
2022/07/24 08:50:43;;;;;;;24.58;11.95;;;25.80;99.90;;;;;;4973548;28;20035;-57
2022/07/24 08:53:10;;;;;;;19.73;12.48;;;25.70;99.90;;;;;;4973379;28;20082;-59
2022/07/24 08:55:36;;;;;;;14.48;11.65;;;25.90;99.90;;;;;;4969253;28;20022;-59
2022/07/24 08:58:14;;;;;;;17.38;12.15;;;26.20;99.90;;;;;;4959795;28;20082;-59
2022/07/24 09:00:46;;;;;;;18.45;12.30;;;26.30;99.90;;;;;;4958241;28;20042;-59
2022/07/24 09:03:12;;;;;;;17.33;11.90;;;26.30;99.90;;;;;;4953247;28;20360;-59
2022/07/24 09:06:14;;;;;;;15.30;12.68;;;26.30;99.90;;;;;;4954310;28;20027;-59
2022/07/24 09:08:41;;;;;;;13.57;11.07;;;26.40;99.90;;;;;;4878216;29;20037;-60
2022/07/24 09:11:09;;;;;;;14.82;12.35;;;26.60;99.90;;;;;;4938740;28;20495;-59
2022/07/24 09:16:23;;;;;;;15.45;11.85;;;26.80;99.90;;;;;;4954292;28;20089;-58
2022/07/24 09:18:51;;;;;;;13.32;11.55;;;26.80;99.90;;;;;;4973429;28;20022;-54
2022/07/24 09:21:18;;;;;;;14.73;11.27;;;26.90;99.90;;;;;;4967555;28;20027;-59
2022/07/24 09:23:45;;;;;;;13.77;12.02;;;27.10;99.90;;;;;;4954701;28;20031;-57
2022/07/24 09:26:11;;;;;;;19.17;11.07;;;27.20;99.60;;;;;;4939021;28;20019;-60
2022/07/24 09:28:54;;;;;;;11.38;10.10;;;27.10;99.90;;;;;;4955373;28;20027;-59
2022/07/24 09:31:26;;;;;;;;;;;27.20;99.30;;;;;;4950025;28;20049;-60
2022/07/24 09:33:52;;;;;;;12.05;10.70;;;27.50;99.90;;;;;;4961822;28;19910;-60
2022/07/24 09:36:18;;;;;;;11.77;9.45;;;27.60;99.70;;;;;;4972541;28;20430;-60
2022/07/24 09:38:49;;;;;;;14.82;10.35;;;27.80;98.60;;;;;;4971288;28;20665;-59
2022/07/24 09:41:23;;;;;;;14.40;10.48;;;27.50;99.80;;;;;;4972388;28;20030;-57
2022/07/24 09:43:59;;;;;;;10.43;9.27;;;27.60;98.00;;;;;;4954818;28;20031;-58
2022/07/24 09:46:26;;;;;;;12.95;11.35;;;27.90;98.70;;;;;;4973448;28;20109;-55
2022/07/24 09:48:54;;;;;;;10.68;9.52;;;27.90;97.70;;;;;;4972570;28;20039;-58
2022/07/24 09:51:20;;;;;;;14.95;9.77;;;28.10;97.80;;;;;;4974074;28;20023;-60
2022/07/24 09:53:52;;;;;;;16.75;10.95;;;28.30;98.20;;;;;;4973269;28;20022;-60
2022/07/24 09:56:18;;;;;;;16.58;10.30;;;28.30;97.50;;;;;;4973609;28;20478;-59
2022/07/24 09:58:46;;;;;;;16.20;11.00;;;28.20;97.80;;;;;;4972882;28;20054;-56
2022/07/24 10:01:14;;;;;;;16.83;12.20;;;28.50;96.80;;;;;;4973282;28;20105;-57
2022/07/24 10:03:42;;;;;;;14.15;9.18;;;28.50;97.60;;;;;;4972546;28;20427;-58
2022/07/24 10:06:11;;;;;;;14.68;10.15;;;28.70;97.00;;;;;;4972509;28;20077;-58
2022/07/24 10:08:39;;;;;;;11.82;10.60;;;28.60;97.30;;;;;;4971460;28;20369;-59
2022/07/24 10:11:05;;;;;;;11.63;9.45;;;28.50;96.20;;;;;;4946421;28;20043;-58
2022/07/24 10:13:31;;;;;;;15.55;9.60;;;28.60;96.30;;;;;;4946692;28;20054;-56
2022/07/24 10:16:12;;;;;;;10.73;8.50;;;29.20;96.40;;;;;;4946741;28;20031;-59
2022/07/24 10:19:03;;;;;;;12.73;10.13;;;29.30;96.60;;;;;;4964689;28;20034;-55
2022/07/24 10:21:34;;;;;;;10.15;9.02;;;29.00;95.20;;;;;;4947258;28;20459;-59
2022/07/24 10:24:10;;;;;;;10.52;9.32;;;29.00;96.40;;;;;;4945570;28;20039;-58
2022/07/24 10:26:40;;;;;;;11.43;9.27;;;29.30;97.20;;;;;;4963728;28;20031;-59
2022/07/24 10:29:10;;;;;;;10.65;9.32;;;29.20;96.10;;;;;;4964877;28;20038;-60
2022/07/24 10:31:43;;;;;;;10.35;9.23;;;29.30;96.50;;;;;;4947472;28;20141;-59
2022/07/24 10:34:24;;;;;;;10.85;8.75;;;29.40;94.10;;;;;;4965344;28;20431;-58
2022/07/24 10:37:23;;;;;;;10.52;8.63;;;29.70;95.40;;;;;;4946802;28;20027;-58
2022/07/24 10:40:07;;;;;;;9.88;8.05;;;29.80;95.80;;;;;;4963396;28;20031;-59
2022/07/24 10:42:33;;;;;;;11.38;8.10;;;29.80;95.30;;;;;;4960226;28;20023;-59
2022/07/24 10:45:18;;;;;;;14.38;8.63;;;30.10;94.00;;;;;;4943248;28;20050;-56
2022/07/24 10:47:45;;;;;;;12.13;8.80;;;30.10;92.80;;;;;;4964905;28;20058;-59
2022/07/24 10:50:12;;;;;;;11.75;9.00;;;30.00;93.90;;;;;;4944420;28;20047;-58
2022/07/24 10:52:39;;;;;;;9.93;8.93;;;29.90;93.00;;;;;;4954812;28;20023;-58
2022/07/24 10:55:28;;;;;;;13.48;8.10;;;30.00;94.50;;;;;;4962548;28;20019;-59
2022/07/24 10:58:12;;;;;;;9.25;7.85;;;30.20;91.60;;;;;;4963372;28;20042;-58
2022/07/24 11:00:43;;;;;;;11.85;8.25;;;30.30;91.40;;;;;;4963665;28;20034;-59
2022/07/24 11:03:26;;;;;;;10.18;8.20;;;30.30;90.50;;;;;;4947723;28;20045;-60
2022/07/24 11:06:07;;;;;;;11.82;7.80;;;30.50;91.20;;;;;;4957435;28;20102;-59
2022/07/24 11:08:38;;;;;;;14.50;7.38;;;30.90;90.50;;;;;;4947780;28;20586;-59
2022/07/24 11:11:16;;;;;;;8.02;7.22;;;30.90;89.60;;;;;;4944569;28;20498;-58
2022/07/24 11:13:44;;;;;;;8.13;6.50;;;31.10;91.10;;;;;;4964679;28;20089;-59
2022/07/24 11:16:15;;;;;;;8.90;7.15;;;31.40;86.10;;;;;;4945828;28;20947;-60
2022/07/24 11:18:47;;;;;;;8.80;6.95;;;31.50;86.70;;;;;;4956394;28;20421;-57
2022/07/24 11:21:35;;;;;;;8.45;7.30;;;31.80;87.10;;;;;;4943093;28;20642;-59
2022/07/24 11:24:17;;;;;;;7.05;6.07;;;31.80;81.10;;;;;;4963195;28;20490;-60
2022/07/24 11:27:06;;;;;;;11.05;7.47;;;32.10;86.30;;;;;;4963320;28;20351;-57
2022/07/24 11:29:37;;;;;;;7.07;6.38;;;31.80;82.60;;;;;;4963087;28;20038;-58
2022/07/24 11:32:07;;;;;;;10.32;6.85;;;32.00;84.90;;;;;;4947453;28;20063;-60
2022/07/24 11:34:34;;;;;;;15.55;8.32;;;31.90;83.70;;;;;;4946529;28;20023;-58
2022/07/24 11:37:01;;;;;;;8.02;6.68;;;31.10;85.00;;;;;;4962371;28;20026;-59
2022/07/24 11:39:31;;;;;;;8.07;7.28;;;30.60;85.80;;;;;;4947850;28;20035;-58
2022/07/24 11:42:02;;;;;;;8.63;7.00;;;30.30;83.70;;;;;;4963172;28;20109;-58
2022/07/24 11:44:30;;;;;;;10.48;8.18;;;29.70;83.30;;;;;;4963732;28;20037;-57
2022/07/24 11:47:04;;;;;;;9.43;7.20;;;29.60;86.50;;;;;;4946275;28;20101;-56
2022/07/24 11:49:30;;;;;;;9.38;7.65;;;29.30;83.60;;;;;;4944881;28;20043;-58
2022/07/24 11:51:55;;;;;;;17.00;7.47;;;29.30;85.20;;;;;;4943971;28;20034;-59
2022/07/24 11:54:24;;;;;;;7.45;6.35;;;29.10;82.50;;;;;;4943907;28;20016;-59
2022/07/24 11:56:51;;;;;;;11.40;7.28;;;29.30;83.80;;;;;;4944814;28;20566;-59
2022/07/24 11:59:32;;;;;;;7.93;6.78;;;29.50;84.10;;;;;;4945060;28;20074;-57
2022/07/24 12:02:07;;;;;;;10.15;6.63;;;29.90;83.70;;;;;;4944223;28;20039;-58
2022/07/24 12:04:33;;;;;;;9.35;6.97;;;30.30;80.70;;;;;;4945196;28;20366;-57
2022/07/24 12:07:00;;;;;;;10.57;6.78;;;30.20;82.20;;;;;;4944109;28;20475;-59
2022/07/24 12:09:26;;;;;;;12.57;7.63;;;30.70;84.80;;;;;;4945907;28;20026;-59
2022/07/24 12:11:52;;;;;;;9.82;6.10;;;31.80;81.80;;;;;;4950663;28;20027;-58
2022/07/24 12:14:20;;;;;;;14.50;6.97;;;32.70;78.80;;;;;;4947743;28;20114;-59
2022/07/24 12:16:54;;;;;;;6.65;6.03;;;33.00;75.60;;;;;;4944163;28;20510;-59
2022/07/24 12:19:24;;;;;;;12.25;6.38;;;33.80;75.70;;;;;;4928881;28;20045;-60
2022/07/24 12:21:53;;;;;;;8.30;5.57;;;34.60;70.50;;;;;;4944025;28;20031;-62
2022/07/24 12:24:21;;;;;;;8.32;6.22;;;35.30;68.90;;;;;;4944318;28;20463;-58
2022/07/24 12:26:52;;;;;;;8.60;5.97;;;35.20;66.10;;;;;;4943617;28;20518;-61
2022/07/24 12:29:19;;;;;;;7.00;6.30;;;35.00;66.20;;;;;;4943021;28;20035;-56
2022/07/24 12:31:45;;;;;;;16.85;6.32;;;34.60;64.50;;;;;;4944533;28;20098;-53
2022/07/24 12:34:11;;;;;;;10.52;6.63;;;35.10;65.60;;;;;;4944620;28;20050;-58
2022/07/24 12:36:37;;;;;;;10.27;5.35;;;35.00;66.90;;;;;;4945930;28;20509;-58